Tinker Air Force Base
KTIK : rendu visible

Aérodrome :











RETROUVEZ-NOUS SUR...

 
LOGIN :

S'inscrire | Disclaimer

   EN    FR    IT 

 









Légende :    VFR   VFR Marginal   IFR   IFR Intensif   IFR Très Intensif
Visi : 
Plafond : 
>= 8 km
>= 3000ft
5 à 8 km
1000 à 3000 ft
1500m à 5 km
500 à 1000 ft
800 à 1500m
200 à 500 ft
< 800m
< 200 ft
Symboles :   Orages  Brouillard  Fortes neiges  Fortes précipitations  Vent > 20 kt






- Altitude de l'aérodrome : 1291 ft


KTIK - Tinker Air Force Base

DERNIER METAR :
  • 162256Z AUTO 17009KT 10SM CLR 14/00 A3000 RMK AO2 SLP168 T01401001 $

METARs EXPIRÉS :
  • 162156Z AUTO 16011KT 10SM CLR 16/00 A3001 RMK AO2 SLP170 T01580000 $
  • 162056Z AUTO 16011KT 10SM CLR 17/00 A3003 RMK AO2 SLP177 T01661002 57035 $

TAF TAF KTIK
Valide du 16 à 18h jusqu'au 18 à 00h UTC


161800Z 1618/1724 18012G18KT 9999 SKC QNH3000INS
BECMG 1700/1701 16006KT 9999 FEW180 WS010/19030KT QNH3003INS
BECMG 1708/1709 VRB06KT 9999 SCT180 QNH3005INS
BECMG 1716/1717 36010G15KT 9999 SKC QNH3000INS
BECMG 1723/1724 32006KT 9999 SKC QNH3003INS TX16/1621Z TN02/1712Z



MET'MAP, la Météo Aéronautique d'un coup d'oeil ! - Copyright ORBIFLY Décembre 2007 - Disclaimer

ORBIFLY MET'MAP TEAM :

Programmation & Développement : Alexandra Zaïnal
Conception & Développement : Baudouin d'Aumeries
Co-Programmation & Développement : Marc-Olivier Méhu
Soutien technique & logistique : Manuel Goepfert

Contact : metmap@orbifly.com




SOURCES & CREDITS :

   NOAA       Earth
Advisory